Time;durP1;ratioP1;P1;durP2;ratioP2;P2;SDS_P1;SDS_P2;PMS_P1;PMS_P2;Temp;Humidity;BMP_temperature;BMP_pressure;BME280_temperature;BME280_humidity;BME280_pressure;Samples;Min_cycle;Max_cycle;Signal;HPM_P1;HPM_P2
2023/07/19 00:03:13;;;;;;;3.08;2.33;;;;;;;;;;8304869;28;20037;-61
2023/07/19 00:07:14;;;;;;;5.17;2.10;;;;;;;;;;8301570;28;20025;-61
2023/07/19 00:11:14;;;;;;;2.85;2.20;;;;;;;;;;8301559;28;20124;-61
2023/07/19 00:15:14;;;;;;;2.97;1.80;;;;;;;;;;8302897;28;20859;-61
2023/07/19 00:19:15;;;;;;;2.78;2.10;;;;;;;;;;8303433;28;20268;-61
2023/07/19 00:23:15;;;;;;;3.55;2.10;;;;;;;;;;8299298;28;20029;-61
2023/07/19 00:27:15;;;;;;;4.45;2.00;;;;;;;;;;8300667;28;20033;-60
2023/07/19 00:31:15;;;;;;;5.72;2.08;;;;;;;;;;8300419;28;20041;-61
2023/07/19 00:35:16;;;;;;;3.55;2.20;;;;;;;;;;8300545;28;20057;-61
2023/07/19 00:39:16;;;;;;;2.95;2.28;;;;;;;;;;8302685;28;20049;-61
2023/07/19 00:43:17;;;;;;;5.18;2.30;;;;;;;;;;8300318;28;20031;-60
2023/07/19 00:47:17;;;;;;;3.20;2.30;;;;;;;;;;8303773;28;20068;-62
2023/07/19 00:51:18;;;;;;;5.43;2.37;;;;;;;;;;8301067;28;21443;-61
2023/07/19 00:55:18;;;;;;;3.67;2.45;;;;;;;;;;8299929;28;20123;-61
2023/07/19 00:59:19;;;;;;;5.00;2.20;;;;;;;;;;8301927;28;20033;-61
2023/07/19 01:03:19;;;;;;;3.92;2.00;;;;;;;;;;8299447;28;21111;-61
2023/07/19 01:07:19;;;;;;;5.13;2.45;;;;;;;;;;8301168;28;20101;-61
2023/07/19 01:11:20;;;;;;;4.80;2.38;;;;;;;;;;8301603;28;20033;-61
2023/07/19 01:15:20;;;;;;;4.07;2.33;;;;;;;;;;8301561;28;20128;-61
2023/07/19 01:19:20;;;;;;;4.00;2.10;;;;;;;;;;8297906;28;20124;-61
2023/07/19 01:23:20;;;;;;;4.68;2.15;;;;;;;;;;8301382;28;20067;-61
2023/07/19 01:27:21;;;;;;;3.55;2.40;;;;;;;;;;8303649;28;20025;-61
2023/07/19 01:31:21;;;;;;;4.57;2.67;;;;;;;;;;8307565;28;20140;-61
2023/07/19 01:35:22;;;;;;;3.78;2.50;;;;;;;;;;8308092;28;20030;-61
2023/07/19 01:39:22;;;;;;;4.03;2.30;;;;;;;;;;8306937;28;20489;-61
2023/07/19 01:43:22;;;;;;;3.22;2.33;;;;;;;;;;8308996;28;20033;-61
2023/07/19 01:47:23;;;;;;;4.07;2.40;;;;;;;;;;8307791;28;20083;-61
2023/07/19 01:51:23;;;;;;;4.43;2.65;;;;;;;;;;8302202;28;20731;-61
2023/07/19 01:55:23;;;;;;;6.32;2.45;;;;;;;;;;8304174;28;20132;-61
2023/07/19 01:59:23;;;;;;;7.20;2.72;;;;;;;;;;8306623;28;20028;-61
2023/07/19 02:03:24;;;;;;;4.07;2.45;;;;;;;;;;8306283;28;20029;-61
2023/07/19 02:07:24;;;;;;;6.82;2.67;;;;;;;;;;8305837;28;20037;-61
2023/07/19 02:11:24;;;;;;;4.13;2.20;;;;;;;;;;8306895;28;20843;-61
2023/07/19 02:15:24;;;;;;;4.05;2.60;;;;;;;;;;8305331;28;20082;-61
2023/07/19 02:19:24;;;;;;;6.43;2.75;;;;;;;;;;8306555;28;20449;-61
2023/07/19 02:23:25;;;;;;;3.67;2.77;;;;;;;;;;8307432;28;20022;-61
2023/07/19 02:27:25;;;;;;;4.63;2.78;;;;;;;;;;8305203;28;20029;-61
2023/07/19 02:31:25;;;;;;;4.60;2.80;;;;;;;;;;8303877;28;20064;-61
2023/07/19 02:35:25;;;;;;;5.70;2.53;;;;;;;;;;8306329;28;20095;-61
2023/07/19 02:39:27;;;;;;;4.90;2.83;;;;;;;;;;8303451;28;20116;-61
2023/07/19 02:43:28;;;;;;;6.28;2.70;;;;;;;;;;8303340;28;20032;-61
2023/07/19 02:47:28;;;;;;;6.65;2.75;;;;;;;;;;8303660;28;20458;-61
2023/07/19 02:51:28;;;;;;;3.47;2.10;;;;;;;;;;8305267;28;20100;-61
2023/07/19 02:55:28;;;;;;;5.35;2.30;;;;;;;;;;8306113;28;20021;-61
2023/07/19 02:59:29;;;;;;;4.77;2.43;;;;;;;;;;8306220;28;20063;-61
2023/07/19 03:03:29;;;;;;;5.05;2.58;;;;;;;;;;8303766;28;20041;-61
2023/07/19 03:07:30;;;;;;;3.45;2.40;;;;;;;;;;8302535;28;20094;-61
2023/07/19 03:11:30;;;;;;;4.15;2.38;;;;;;;;;;8303633;28;20025;-61
2023/07/19 03:15:32;;;;;;;4.10;2.40;;;;;;;;;;8304397;28;20033;-61
2023/07/19 03:19:33;;;;;;;3.88;2.50;;;;;;;;;;8304540;28;20053;-61
2023/07/19 03:23:33;;;;;;;9.60;3.00;;;;;;;;;;8303615;28;20831;-61
2023/07/19 03:27:33;;;;;;;4.57;2.70;;;;;;;;;;8299872;28;20033;-61
2023/07/19 03:31:34;;;;;;;4.37;2.47;;;;;;;;;;8304049;28;20105;-61
2023/07/19 03:35:34;;;;;;;6.60;2.63;;;;;;;;;;8302382;28;20780;-61
2023/07/19 03:39:34;;;;;;;5.15;2.70;;;;;;;;;;8312272;28;20174;-61
2023/07/19 03:43:35;;;;;;;5.20;2.75;;;;;;;;;;8302553;28;20124;-60
2023/07/19 03:47:36;;;;;;;5.70;2.50;;;;;;;;;;8303685;28;20126;-60
2023/07/19 03:51:37;;;;;;;3.75;2.33;;;;;;;;;;8303041;28;20033;-61
2023/07/19 03:55:37;;;;;;;5.37;2.23;;;;;;;;;;8304414;28;20023;-60
2023/07/19 03:59:37;;;;;;;4.37;2.07;;;;;;;;;;8304473;28;20383;-61
2023/07/19 04:03:37;;;;;;;5.32;2.38;;;;;;;;;;8303545;28;20030;-60
2023/07/19 04:07:38;;;;;;;2.65;2.05;;;;;;;;;;8302105;28;20021;-60
2023/07/19 04:11:38;;;;;;;7.38;2.35;;;;;;;;;;8302031;28;20071;-60
2023/07/19 04:15:39;;;;;;;5.32;2.50;;;;;;;;;;8303363;28;20047;-61
2023/07/19 04:19:40;;;;;;;2.55;2.17;;;;;;;;;;8299617;28;20021;-60
2023/07/19 04:23:40;;;;;;;8.57;2.30;;;;;;;;;;8299452;28;20040;-62
2023/07/19 04:27:40;;;;;;;9.43;2.33;;;;;;;;;;8299477;28;20018;-61
2023/07/19 04:31:40;;;;;;;12.50;2.20;;;;;;;;;;8302404;28;20140;-61
2023/07/19 04:35:41;;;;;;;6.82;2.22;;;;;;;;;;8304510;28;20762;-61
2023/07/19 04:39:41;;;;;;;8.32;2.30;;;;;;;;;;8298854;28;20029;-61
2023/07/19 04:43:42;;;;;;;8.80;2.60;;;;;;;;;;8297128;28;20568;-61
2023/07/19 04:47:42;;;;;;;11.43;2.40;;;;;;;;;;8299890;28;20467;-60
2023/07/19 04:51:42;;;;;;;14.02;2.83;;;;;;;;;;8302196;28;20486;-60
2023/07/19 04:55:43;;;;;;;7.68;2.70;;;;;;;;;;8297254;28;20092;-60
2023/07/19 04:59:43;;;;;;;9.40;2.42;;;;;;;;;;8299705;28;20028;-61
2023/07/19 05:03:43;;;;;;;13.93;2.92;;;;;;;;;;8302542;28;20080;-61
2023/07/19 05:07:43;;;;;;;7.80;2.30;;;;;;;;;;8299607;28;20032;-61
2023/07/19 05:11:44;;;;;;;13.20;2.08;;;;;;;;;;8300924;28;20071;-61
2023/07/19 05:15:44;;;;;;;10.05;2.30;;;;;;;;;;8300721;28;20034;-61
2023/07/19 05:19:44;;;;;;;10.10;2.63;;;;;;;;;;8301436;28;20030;-61
2023/07/19 05:23:44;;;;;;;10.25;2.33;;;;;;;;;;8300311;28;20051;-61
2023/07/19 05:27:44;;;;;;;9.87;2.63;;;;;;;;;;8304315;28;20033;-61
2023/07/19 05:31:45;;;;;;;21.48;2.72;;;;;;;;;;8300981;28;20061;-61
2023/07/19 05:35:48;;;;;;;20.55;2.63;;;;;;;;;;8299803;28;20032;-61
2023/07/19 05:39:50;;;;;;;10.38;3.05;;;;;;;;;;8301721;28;20017;-61
2023/07/19 05:43:50;;;;;;;25.70;3.42;;;;;;;;;;8299229;28;20465;-60
2023/07/19 05:47:50;;;;;;;22.10;3.05;;;;;;;;;;8297824;28;20041;-60
2023/07/19 05:51:50;;;;;;;21.97;3.00;;;;;;;;;;8302738;28;20049;-60
2023/07/19 05:55:52;;;;;;;13.30;2.80;;;;;;;;;;8299973;28;20594;-60
2023/07/19 05:59:53;;;;;;;17.58;2.40;;;;;;;;;;8299080;28;20052;-60
2023/07/19 06:03:53;;;;;;;17.15;3.00;;;;;;;;;;8297502;28;20535;-60
2023/07/19 06:07:53;;;;;;;14.52;2.78;;;;;;;;;;8303272;28;20033;-60
2023/07/19 06:11:56;;;;;;;17.73;2.30;;;;;;;;;;8304749;28;20017;-60
2023/07/19 06:15:57;;;;;;;25.83;2.40;;;;;;;;;;8306518;28;20041;-60
2023/07/19 06:19:57;;;;;;;17.58;2.40;;;;;;;;;;8307800;28;20580;-60
2023/07/19 06:23:57;;;;;;;15.73;2.57;;;;;;;;;;8305549;28;20021;-60
2023/07/19 06:27:58;;;;;;;14.65;2.47;;;;;;;;;;8306076;28;20032;-60
2023/07/19 06:31:58;;;;;;;12.88;2.63;;;;;;;;;;8305225;28;20044;-60
2023/07/19 06:35:58;;;;;;;15.00;2.60;;;;;;;;;;8302672;28;20036;-60
2023/07/19 06:40:02;;;;;;;11.13;2.47;;;;;;;;;;8304022;28;20026;-60
2023/07/19 06:44:02;;;;;;;10.02;2.10;;;;;;;;;;8303471;28;20100;-60
2023/07/19 06:48:03;;;;;;;10.03;2.10;;;;;;;;;;8302028;28;20303;-60
2023/07/19 06:52:04;;;;;;;14.20;2.55;;;;;;;;;;8303021;28;20033;-60
2023/07/19 06:56:05;;;;;;;10.80;2.47;;;;;;;;;;8303114;28;20370;-60
2023/07/19 07:00:05;;;;;;;9.30;2.40;;;;;;;;;;8301762;28;20106;-61
2023/07/19 07:04:08;;;;;;;11.73;1.90;;;;;;;;;;8305256;28;20063;-61
2023/07/19 07:08:09;;;;;;;9.63;2.10;;;;;;;;;;8303469;28;20025;-61
2023/07/19 07:12:10;;;;;;;15.00;2.22;;;;;;;;;;8303157;28;20025;-60
2023/07/19 07:16:12;;;;;;;13.30;2.00;;;;;;;;;;8304314;28;20143;-61
2023/07/19 07:20:12;;;;;;;8.10;1.90;;;;;;;;;;8304818;28;20028;-61
2023/07/19 07:24:12;;;;;;;7.60;1.80;;;;;;;;;;8304388;28;20025;-60
2023/07/19 07:28:12;;;;;;;5.10;1.85;;;;;;;;;;8303983;28;20048;-60
2023/07/19 07:32:13;;;;;;;4.75;1.88;;;;;;;;;;8302178;28;20041;-60
2023/07/19 07:36:13;;;;;;;2.40;1.80;;;;;;;;;;8301956;28;20032;-60
2023/07/19 07:40:14;;;;;;;10.20;1.83;;;;;;;;;;8304477;28;20783;-61
2023/07/19 07:44:14;;;;;;;4.45;1.70;;;;;;;;;;8303352;28;20033;-60
2023/07/19 07:48:14;;;;;;;4.83;1.97;;;;;;;;;;8302196;28;20374;-60
2023/07/19 07:52:15;;;;;;;5.28;1.70;;;;;;;;;;8305339;28;20031;-59
2023/07/19 07:56:16;;;;;;;6.15;1.70;;;;;;;;;;8303063;28;20470;-60
2023/07/19 08:00:17;;;;;;;5.47;1.70;;;;;;;;;;8304155;28;20060;-61
2023/07/19 08:04:17;;;;;;;2.97;1.80;;;;;;;;;;8301437;28;20029;-60
2023/07/19 08:08:18;;;;;;;3.80;1.48;;;;;;;;;;8302353;28;21133;-60
2023/07/19 08:12:19;;;;;;;3.47;1.60;;;;;;;;;;8301212;28;20029;-60
2023/07/19 08:16:20;;;;;;;4.75;1.77;;;;;;;;;;8301901;28;20752;-60
2023/07/19 08:20:20;;;;;;;1.60;1.30;;;;;;;;;;8304237;28;20083;-60
2023/07/19 08:24:20;;;;;;;1.73;1.40;;;;;;;;;;8300374;28;20056;-60
2023/07/19 08:28:20;;;;;;;5.40;1.63;;;;;;;;;;8299982;28;20013;-60
2023/07/19 08:32:21;;;;;;;4.63;1.40;;;;;;;;;;8301561;28;20470;-60
2023/07/19 08:36:21;;;;;;;2.70;1.60;;;;;;;;;;8300076;28;20081;-60
2023/07/19 08:40:21;;;;;;;4.25;1.70;;;;;;;;;;8301664;28;20032;-60
2023/07/19 08:44:23;;;;;;;1.47;1.30;;;;;;;;;;8299071;28;20057;-60
2023/07/19 08:48:23;;;;;;;4.60;1.38;;;;;;;;;;8297423;28;20662;-60
2023/07/19 08:52:24;;;;;;;2.93;1.40;;;;;;;;;;8302647;28;20136;-60
2023/07/19 08:56:24;;;;;;;4.18;1.60;;;;;;;;;;8299912;28;20068;-60
2023/07/19 09:00:27;;;;;;;3.43;1.80;;;;;;;;;;8301150;28;20330;-59
2023/07/19 09:04:28;;;;;;;1.98;1.40;;;;;;;;;;8300852;28;20721;-60
2023/07/19 09:08:38;;;;;;;2.03;1.48;;;;;;;;;;8298327;28;20069;-60
2023/07/19 09:12:39;;;;;;;2.42;1.30;;;;;;;;;;8302925;28;20028;-60
2023/07/19 09:16:40;;;;;;;3.53;1.38;;;;;;;;;;8301015;28;20040;-60
2023/07/19 09:20:40;;;;;;;3.60;1.30;;;;;;;;;;8301681;28;20400;-60
2023/07/19 09:24:52;;;;;;;4.83;1.40;;;;;;;;;;8298636;28;20036;-60
2023/07/19 09:28:52;;;;;;;1.73;1.23;;;;;;;;;;8302710;28;20031;-60
2023/07/19 09:32:59;;;;;;;3.63;1.60;;;;;;;;;;8298749;28;20100;-60
2023/07/19 09:36:59;;;;;;;4.22;1.50;;;;;;;;;;8299917;28;20029;-60
2023/07/19 09:41:00;;;;;;;4.70;1.20;;;;;;;;;;8299842;28;20032;-60
2023/07/19 09:45:00;;;;;;;3.60;1.60;;;;;;;;;;8300973;28;20021;-61
2023/07/19 09:49:01;;;;;;;20.33;3.10;;;;;;;;;;8305291;28;20029;-60
2023/07/19 09:53:01;;;;;;;6.33;1.50;;;;;;;;;;8309477;28;20039;-60
2023/07/19 09:57:03;;;;;;;1.70;1.40;;;;;;;;;;8302856;28;20029;-60
2023/07/19 10:01:03;;;;;;;8.77;1.63;;;;;;;;;;8307230;28;20037;-60
2023/07/19 10:05:06;;;;;;;4.10;1.43;;;;;;;;;;8304491;28;20033;-60
2023/07/19 10:09:21;;;;;;;19.10;1.90;;;;;;;;;;8307572;28;20042;-61
2023/07/19 10:13:27;;;;;;;3.42;1.55;;;;;;;;;;8304631;28;20405;-60
2023/07/19 10:17:29;;;;;;;11.55;1.80;;;;;;;;;;8301042;28;20858;-61
2023/07/19 10:21:30;;;;;;;7.72;1.70;;;;;;;;;;8305043;28;20709;-60
2023/07/19 10:25:45;;;;;;;13.27;2.10;;;;;;;;;;8303401;28;20202;-61
2023/07/19 10:29:47;;;;;;;11.50;1.80;;;;;;;;;;8304590;28;20080;-61
2023/07/19 10:33:47;;;;;;;8.18;1.80;;;;;;;;;;8304024;28;20041;-61
2023/07/19 10:37:51;;;;;;;9.23;1.70;;;;;;;;;;8294624;28;20032;-62
2023/07/19 10:41:51;;;;;;;5.07;1.70;;;;;;;;;;8299868;28;20250;-60
2023/07/19 10:45:52;;;;;;;11.38;2.10;;;;;;;;;;8295463;28;20156;-61
2023/07/19 10:49:52;;;;;;;11.57;1.97;;;;;;;;;;8299939;28;20033;-61
2023/07/19 10:53:56;;;;;;;8.02;1.80;;;;;;;;;;8290850;28;20033;-61
2023/07/19 10:57:56;;;;;;;7.93;2.00;;;;;;;;;;8300261;28;20120;-61
2023/07/19 11:01:57;;;;;;;16.60;2.10;;;;;;;;;;8304964;28;20140;-61
2023/07/19 11:05:58;;;;;;;24.07;2.00;;;;;;;;;;8307625;28;20988;-61
2023/07/19 11:09:59;;;;;;;10.73;2.00;;;;;;;;;;8309174;28;20085;-61
2023/07/19 11:13:59;;;;;;;5.68;1.65;;;;;;;;;;8301403;28;20836;-61
2023/07/19 11:18:00;;;;;;;8.57;2.10;;;;;;;;;;8305156;28;20111;-60
2023/07/19 11:22:00;;;;;;;5.63;1.90;;;;;;;;;;8306648;28;20025;-61
2023/07/19 11:26:10;;;;;;;4.72;1.77;;;;;;;;;;8302983;28;20648;-61
2023/07/19 11:30:11;;;;;;;3.90;1.60;;;;;;;;;;8303361;28;20124;-61
2023/07/19 11:34:16;;;;;;;4.93;1.63;;;;;;;;;;8305404;28;20020;-61
2023/07/19 11:38:19;;;;;;;7.60;1.80;;;;;;;;;;8305136;28;20059;-60
2023/07/19 11:42:37;;;;;;;12.00;2.00;;;;;;;;;;8303916;28;20051;-60
2023/07/19 11:46:38;;;;;;;8.48;1.77;;;;;;;;;;8297907;28;20238;-61
2023/07/19 11:50:38;;;;;;;11.27;2.07;;;;;;;;;;8304180;28;20060;-60
2023/07/19 11:54:38;;;;;;;6.72;1.75;;;;;;;;;;8304365;28;20024;-60
2023/07/19 11:58:39;;;;;;;7.05;1.88;;;;;;;;;;8303950;28;20779;-60
2023/07/19 12:02:39;;;;;;;7.13;1.73;;;;;;;;;;8306514;28;20033;-60
2023/07/19 12:06:40;;;;;;;4.22;1.80;;;;;;;;;;8302775;28;20025;-60
2023/07/19 12:10:41;;;;;;;4.85;1.60;;;;;;;;;;8305144;28;20936;-60
2023/07/19 12:14:41;;;;;;;8.25;2.00;;;;;;;;;;8301469;28;20193;-62
2023/07/19 12:18:41;;;;;;;3.70;1.90;;;;;;;;;;8299233;28;20099;-61
2023/07/19 12:22:42;;;;;;;5.75;2.00;;;;;;;;;;8304234;28;20025;-60
2023/07/19 12:26:42;;;;;;;8.27;2.10;;;;;;;;;;8300515;28;20068;-61
2023/07/19 12:30:42;;;;;;;9.20;2.07;;;;;;;;;;8297434;28;20506;-61
2023/07/19 12:34:44;;;;;;;3.00;1.90;;;;;;;;;;8302257;28;20557;-60
2023/07/19 12:38:45;;;;;;;4.18;1.90;;;;;;;;;;8301551;28;21056;-61
2023/07/19 12:42:45;;;;;;;6.67;2.33;;;;;;;;;;8301276;28;20040;-61
2023/07/19 12:46:45;;;;;;;5.03;2.30;;;;;;;;;;8302943;28;20045;-61
2023/07/19 12:50:47;;;;;;;7.70;2.40;;;;;;;;;;8302072;28;20048;-61
2023/07/19 12:54:47;;;;;;;5.95;2.15;;;;;;;;;;8301557;28;20017;-61
2023/07/19 12:58:47;;;;;;;6.63;3.17;;;;;;;;;;8302423;28;20029;-61
2023/07/19 13:02:48;;;;;;;3.15;2.30;;;;;;;;;;8299606;28;20037;-60
2023/07/19 13:06:48;;;;;;;4.53;2.40;;;;;;;;;;8298418;28;20516;-61
2023/07/19 13:10:49;;;;;;;2.40;1.90;;;;;;;;;;8301578;28;20410;-60
2023/07/19 13:14:50;;;;;;;5.03;1.75;;;;;;;;;;8300774;28;20155;-60
2023/07/19 13:18:50;;;;;;;4.05;1.92;;;;;;;;;;8298490;28;20045;-60
2023/07/19 13:22:51;;;;;;;3.58;1.90;;;;;;;;;;8303595;28;20087;-60
2023/07/19 13:26:51;;;;;;;3.80;2.30;;;;;;;;;;8300661;28;20097;-60
2023/07/19 13:30:51;;;;;;;7.70;2.40;;;;;;;;;;8303584;28;20034;-61
2023/07/19 13:34:51;;;;;;;9.82;2.30;;;;;;;;;;8299554;28;20059;-60
2023/07/19 13:38:52;;;;;;;6.07;2.10;;;;;;;;;;8302094;28;20029;-61
2023/07/19 13:42:52;;;;;;;7.70;2.00;;;;;;;;;;8299775;28;20056;-61
2023/07/19 13:46:52;;;;;;;3.50;1.73;;;;;;;;;;8300262;28;20457;-60
2023/07/19 13:50:54;;;;;;;7.90;2.00;;;;;;;;;;8301753;28;20047;-61
2023/07/19 13:54:54;;;;;;;4.65;2.10;;;;;;;;;;8301575;28;20066;-61
2023/07/19 13:58:55;;;;;;;3.60;1.80;;;;;;;;;;8298796;28;20342;-61
2023/07/19 14:02:55;;;;;;;3.23;1.80;;;;;;;;;;8299321;28;20038;-61
2023/07/19 14:06:56;;;;;;;4.27;1.90;;;;;;;;;;8299029;28;20060;-61
2023/07/19 14:10:56;;;;;;;2.47;1.60;;;;;;;;;;8295840;28;20080;-61
2023/07/19 14:14:57;;;;;;;3.35;1.67;;;;;;;;;;8294083;28;20041;-60
2023/07/19 14:18:57;;;;;;;4.68;1.92;;;;;;;;;;8299720;28;20034;-62
2023/07/19 14:22:57;;;;;;;4.97;2.20;;;;;;;;;;8298961;28;20722;-62
2023/07/19 14:26:57;;;;;;;3.37;1.90;;;;;;;;;;8299862;28;20878;-60
2023/07/19 14:30:58;;;;;;;2.77;1.57;;;;;;;;;;8300443;28;20116;-60
2023/07/19 14:34:58;;;;;;;7.75;2.10;;;;;;;;;;8305158;28;20036;-60
2023/07/19 14:38:58;;;;;;;3.17;1.90;;;;;;;;;;8303993;28;20056;-60
2023/07/19 14:43:00;;;;;;;5.35;1.80;;;;;;;;;;8305380;28;20067;-61
2023/07/19 14:47:02;;;;;;;6.90;1.80;;;;;;;;;;8301264;28;20042;-61
2023/07/19 14:51:02;;;;;;;4.10;1.90;;;;;;;;;;8300268;28;20029;-60
2023/07/19 14:55:03;;;;;;;3.35;1.92;;;;;;;;;;8303133;28;20020;-60
2023/07/19 14:59:04;;;;;;;4.18;1.90;;;;;;;;;;8299618;28;20017;-61
2023/07/19 15:03:04;;;;;;;3.85;1.80;;;;;;;;;;8304901;28;20047;-61
2023/07/19 15:07:04;;;;;;;3.95;2.20;;;;;;;;;;8299745;28;20072;-61
2023/07/19 15:11:07;;;;;;;10.50;2.27;;;;;;;;;;8300020;28;20102;-61
2023/07/19 15:15:07;;;;;;;2.30;1.95;;;;;;;;;;8301553;28;20034;-61
2023/07/19 15:19:07;;;;;;;5.65;1.75;;;;;;;;;;8299982;28;20055;-61
2023/07/19 15:23:08;;;;;;;5.60;1.50;;;;;;;;;;8300334;28;20072;-61
2023/07/19 15:27:08;;;;;;;2.03;1.50;;;;;;;;;;8299298;28;20482;-60
2023/07/19 15:31:08;;;;;;;6.73;1.63;;;;;;;;;;8302291;28;20036;-61
2023/07/19 15:35:09;;;;;;;5.03;1.60;;;;;;;;;;8303859;28;20541;-60
2023/07/19 15:39:09;;;;;;;4.80;1.30;;;;;;;;;;8301238;28;20171;-60
2023/07/19 15:43:09;;;;;;;4.43;1.52;;;;;;;;;;8302236;28;20885;-60
2023/07/19 15:47:10;;;;;;;4.15;1.30;;;;;;;;;;8301531;28;21074;-60
2023/07/19 15:51:10;;;;;;;2.78;1.50;;;;;;;;;;8302394;28;20034;-60
2023/07/19 15:55:10;;;;;;;5.20;1.83;;;;;;;;;;8302448;28;20152;-61
2023/07/19 15:59:11;;;;;;;4.27;1.60;;;;;;;;;;8298765;28;20043;-60
2023/07/19 16:03:11;;;;;;;2.37;1.23;;;;;;;;;;8300353;28;20561;-61
2023/07/19 16:07:11;;;;;;;1.60;1.50;;;;;;;;;;8302998;28;20033;-61
2023/07/19 16:11:12;;;;;;;2.00;1.20;;;;;;;;;;8301399;28;20025;-60
2023/07/19 16:15:12;;;;;;;4.40;1.45;;;;;;;;;;8301640;28;20021;-61
2023/07/19 16:19:12;;;;;;;3.60;1.23;;;;;;;;;;8302767;28;20447;-60
2023/07/19 16:23:16;;;;;;;12.30;1.50;;;;;;;;;;8302275;28;20243;-60
2023/07/19 16:27:16;;;;;;;4.30;1.10;;;;;;;;;;8299873;28;20037;-60
2023/07/19 16:31:20;;;;;;;3.20;1.10;;;;;;;;;;8300208;28;20549;-60
2023/07/19 16:35:20;;;;;;;2.80;1.20;;;;;;;;;;8298357;28;20276;-60
2023/07/19 16:39:20;;;;;;;5.63;1.38;;;;;;;;;;8298602;28;20021;-61
2023/07/19 16:43:21;;;;;;;3.20;1.30;;;;;;;;;;8294669;28;20469;-60
2023/07/19 16:47:21;;;;;;;3.67;1.27;;;;;;;;;;8296621;28;20113;-60
2023/07/19 16:51:22;;;;;;;4.10;1.40;;;;;;;;;;8299153;28;20031;-60
2023/07/19 16:55:22;;;;;;;1.70;1.20;;;;;;;;;;8298551;28;20136;-61
2023/07/19 16:59:22;;;;;;;2.65;1.30;;;;;;;;;;8299160;28;20135;-61
2023/07/19 17:03:22;;;;;;;2.13;1.17;;;;;;;;;;8296332;28;20033;-61
2023/07/19 17:07:22;;;;;;;5.10;1.30;;;;;;;;;;8299051;28;20025;-60
2023/07/19 17:11:23;;;;;;;2.30;1.30;;;;;;;;;;8298084;28;20018;-60
2023/07/19 17:15:23;;;;;;;3.90;1.40;;;;;;;;;;8298823;28;20063;-61
2023/07/19 17:19:23;;;;;;;2.85;1.20;;;;;;;;;;8299554;28;20025;-60
2023/07/19 17:23:24;;;;;;;3.80;1.20;;;;;;;;;;8298307;28;20123;-60
2023/07/19 17:27:24;;;;;;;1.67;1.20;;;;;;;;;;8292622;28;20025;-60
2023/07/19 17:31:24;;;;;;;5.05;1.20;;;;;;;;;;8297820;28;20071;-60
2023/07/19 17:35:25;;;;;;;2.85;1.48;;;;;;;;;;8299725;28;20021;-60
2023/07/19 17:39:25;;;;;;;6.90;1.43;;;;;;;;;;8298074;28;20050;-60
2023/07/19 17:43:25;;;;;;;4.40;1.23;;;;;;;;;;8299909;28;20440;-60
2023/07/19 17:47:25;;;;;;;3.47;1.50;;;;;;;;;;8297861;28;20044;-60
2023/07/19 17:51:26;;;;;;;3.63;1.30;;;;;;;;;;8295967;28;20875;-60
2023/07/19 17:55:26;;;;;;;5.18;1.40;;;;;;;;;;8297767;28;20103;-60
2023/07/19 17:59:26;;;;;;;3.42;1.00;;;;;;;;;;8298629;28;20478;-60
2023/07/19 18:03:28;;;;;;;3.30;1.38;;;;;;;;;;8292806;28;20129;-60
2023/07/19 18:07:28;;;;;;;3.83;1.40;;;;;;;;;;8298480;28;20757;-60
2023/07/19 18:11:28;;;;;;;4.53;1.17;;;;;;;;;;8303375;28;20024;-60
2023/07/19 18:15:29;;;;;;;2.75;1.20;;;;;;;;;;8302665;28;20457;-61
2023/07/19 18:19:30;;;;;;;5.22;1.30;;;;;;;;;;8301406;28;20040;-61
2023/07/19 18:23:31;;;;;;;3.03;1.20;;;;;;;;;;8302875;28;20533;-61
2023/07/19 18:27:31;;;;;;;14.00;1.33;;;;;;;;;;8302603;28;20032;-61
2023/07/19 18:31:31;;;;;;;2.77;1.27;;;;;;;;;;8302379;28;20044;-61
2023/07/19 18:35:32;;;;;;;2.83;1.00;;;;;;;;;;8297053;28;20071;-61
2023/07/19 18:39:32;;;;;;;6.18;1.27;;;;;;;;;;8303363;28;20029;-61
2023/07/19 18:43:32;;;;;;;6.63;1.10;;;;;;;;;;8300357;28;20025;-61
2023/07/19 18:47:35;;;;;;;4.03;1.25;;;;;;;;;;8301593;28;20100;-61
2023/07/19 18:51:35;;;;;;;6.18;1.13;;;;;;;;;;8302774;28;20886;-61
2023/07/19 18:55:35;;;;;;;6.65;1.25;;;;;;;;;;8300568;28;20061;-61
2023/07/19 18:59:35;;;;;;;5.10;1.03;;;;;;;;;;8303143;28;20026;-61
2023/07/19 19:03:36;;;;;;;9.27;1.10;;;;;;;;;;8303091;28;20898;-62
2023/07/19 19:07:36;;;;;;;1.58;1.05;;;;;;;;;;8299776;28;20033;-61
2023/07/19 19:11:36;;;;;;;4.25;1.15;;;;;;;;;;8300495;28;20029;-61
2023/07/19 19:15:36;;;;;;;6.53;1.20;;;;;;;;;;8301052;28;20040;-62
2023/07/19 19:19:37;;;;;;;1.92;1.10;;;;;;;;;;8300431;28;20741;-61
2023/07/19 19:23:39;;;;;;;3.87;1.20;;;;;;;;;;8300784;28;20022;-60
2023/07/19 19:27:39;;;;;;;3.95;1.05;;;;;;;;;;8299996;28;20040;-61
2023/07/19 19:31:39;;;;;;;2.72;0.88;;;;;;;;;;8303186;28;20033;-61
2023/07/19 19:35:40;;;;;;;4.93;0.90;;;;;;;;;;8300167;28;20028;-60
2023/07/19 19:39:40;;;;;;;1.80;1.00;;;;;;;;;;8300638;28;20037;-60
2023/07/19 19:43:40;;;;;;;1.92;1.10;;;;;;;;;;8299007;28;20040;-60
2023/07/19 19:47:43;;;;;;;1.90;1.13;;;;;;;;;;8297022;28;20130;-60
2023/07/19 19:51:43;;;;;;;2.40;1.20;;;;;;;;;;8300252;28;20615;-60
2023/07/19 19:55:43;;;;;;;3.67;0.97;;;;;;;;;;8299170;28;20021;-60
2023/07/19 19:59:44;;;;;;;1.50;1.40;;;;;;;;;;8298212;28;20475;-60
2023/07/19 20:03:44;;;;;;;1.27;1.10;;;;;;;;;;8299428;28;20125;-60
2023/07/19 20:07:45;;;;;;;2.17;1.30;;;;;;;;;;8301450;28;20068;-60
2023/07/19 20:11:45;;;;;;;6.15;1.17;;;;;;;;;;8297660;28;20329;-61
2023/07/19 20:15:49;;;;;;;1.30;1.20;;;;;;;;;;8293671;28;20095;-60
2023/07/19 20:19:49;;;;;;;3.13;1.33;;;;;;;;;;8300921;28;20049;-60
2023/07/19 20:23:49;;;;;;;2.78;1.40;;;;;;;;;;8294889;28;20024;-61
2023/07/19 20:27:50;;;;;;;4.22;1.70;;;;;;;;;;8296838;28;20021;-60
2023/07/19 20:31:50;;;;;;;1.58;1.30;;;;;;;;;;8297620;28;20153;-60
2023/07/19 20:35:51;;;;;;;3.47;1.50;;;;;;;;;;8300264;28;20221;-60
2023/07/19 20:39:51;;;;;;;2.50;1.30;;;;;;;;;;8299241;28;20033;-60
2023/07/19 20:43:52;;;;;;;2.20;1.30;;;;;;;;;;8296930;28;20108;-60
2023/07/19 20:47:52;;;;;;;4.53;1.60;;;;;;;;;;8297208;28;20099;-60
2023/07/19 20:51:53;;;;;;;1.97;1.37;;;;;;;;;;8298275;28;20034;-61
2023/07/19 20:55:54;;;;;;;2.13;1.70;;;;;;;;;;8299475;28;20017;-61
2023/07/19 20:59:54;;;;;;;2.50;1.60;;;;;;;;;;8294448;28;20132;-60
2023/07/19 21:03:54;;;;;;;2.05;1.35;;;;;;;;;;8299225;28;20671;-60
2023/07/19 21:07:54;;;;;;;3.05;1.50;;;;;;;;;;8295575;28;20454;-61
2023/07/19 21:11:55;;;;;;;2.47;1.60;;;;;;;;;;8295988;28;20020;-61
2023/07/19 21:15:55;;;;;;;3.53;1.38;;;;;;;;;;8295262;28;20480;-61
2023/07/19 21:19:55;;;;;;;2.00;1.60;;;;;;;;;;8297333;28;20022;-61
2023/07/19 21:23:55;;;;;;;2.08;1.33;;;;;;;;;;8297590;28;20027;-61
2023/07/19 21:27:56;;;;;;;1.87;1.50;;;;;;;;;;8293740;28;20036;-61
2023/07/19 21:31:56;;;;;;;2.80;1.30;;;;;;;;;;8295081;28;20036;-61
2023/07/19 21:35:56;;;;;;;6.60;1.50;;;;;;;;;;8292758;28;20159;-61
2023/07/19 21:39:56;;;;;;;4.35;1.40;;;;;;;;;;8298964;28;20535;-61
2023/07/19 21:43:56;;;;;;;4.20;1.67;;;;;;;;;;8304249;28;20827;-61
2023/07/19 21:47:57;;;;;;;2.90;1.60;;;;;;;;;;8301655;28;20043;-61
2023/07/19 21:51:57;;;;;;;2.53;1.70;;;;;;;;;;8304236;28;20029;-61
2023/07/19 21:55:57;;;;;;;2.50;1.73;;;;;;;;;;8306013;28;20279;-61
2023/07/19 21:59:58;;;;;;;3.83;1.50;;;;;;;;;;8300703;28;20043;-61
2023/07/19 22:03:58;;;;;;;1.48;1.20;;;;;;;;;;8303153;28;20036;-61
2023/07/19 22:08:02;;;;;;;1.37;1.20;;;;;;;;;;8300577;28;20032;-60
2023/07/19 22:12:02;;;;;;;4.18;1.65;;;;;;;;;;8300678;28;20686;-60
2023/07/19 22:16:03;;;;;;;3.30;1.55;;;;;;;;;;8302796;28;20041;-60
2023/07/19 22:20:03;;;;;;;1.80;1.40;;;;;;;;;;8302612;28;20314;-60
2023/07/19 22:24:04;;;;;;;7.60;1.60;;;;;;;;;;8300465;28;20098;-60
2023/07/19 22:28:04;;;;;;;2.95;1.55;;;;;;;;;;8302789;28;20029;-60
2023/07/19 22:32:04;;;;;;;2.33;1.40;;;;;;;;;;8304005;28;20467;-60
2023/07/19 22:36:05;;;;;;;2.63;1.40;;;;;;;;;;8298327;28;20024;-60
2023/07/19 22:40:07;;;;;;;4.47;1.60;;;;;;;;;;8301616;28;20025;-61
2023/07/19 22:44:07;;;;;;;3.40;1.60;;;;;;;;;;8303137;28;20048;-60
2023/07/19 22:48:07;;;;;;;1.52;1.30;;;;;;;;;;8300174;28;20606;-61
2023/07/19 22:52:07;;;;;;;2.83;1.60;;;;;;;;;;8305809;28;20029;-60
2023/07/19 22:56:07;;;;;;;4.40;1.60;;;;;;;;;;8304977;28;20083;-60
2023/07/19 23:00:08;;;;;;;2.17;1.40;;;;;;;;;;8302682;28;20099;-61
2023/07/19 23:04:09;;;;;;;3.13;1.77;;;;;;;;;;8313415;28;20014;-60
2023/07/19 23:08:09;;;;;;;4.60;1.50;;;;;;;;;;8301286;28;20029;-61
2023/07/19 23:12:09;;;;;;;2.78;1.30;;;;;;;;;;8304282;28;20770;-61
2023/07/19 23:16:09;;;;;;;3.75;1.50;;;;;;;;;;8301335;28;20042;-61
2023/07/19 23:20:12;;;;;;;2.38;1.60;;;;;;;;;;8300935;28;20153;-61
2023/07/19 23:24:12;;;;;;;4.63;1.60;;;;;;;;;;8303164;28;20032;-61
2023/07/19 23:28:13;;;;;;;5.30;1.42;;;;;;;;;;8303338;28;20933;-61
2023/07/19 23:32:13;;;;;;;4.85;1.50;;;;;;;;;;8307254;28;20029;-61
2023/07/19 23:36:13;;;;;;;3.75;1.58;;;;;;;;;;8302490;28;20033;-61
2023/07/19 23:40:13;;;;;;;1.95;1.40;;;;;;;;;;8304513;28;20041;-61
2023/07/19 23:44:14;;;;;;;2.60;1.30;;;;;;;;;;8302994;28;20030;-61
2023/07/19 23:48:14;;;;;;;5.80;1.40;;;;;;;;;;8302589;28;20048;-61
2023/07/19 23:52:14;;;;;;;1.35;1.20;;;;;;;;;;8303950;28;20027;-61
2023/07/19 23:56:14;;;;;;;1.98;1.52;;;;;;;;;;8302142;28;20808;-61
